sensor_id;sensor_type;location;lat;lon;timestamp;P1;durP1;ratioP1;P2;durP2;ratioP2
56391;SDS011;42289;53.582;9.714;2022-11-09T00:02:21;6.22;;;1.63;;
56391;SDS011;42289;53.582;9.714;2022-11-09T00:04:48;5.25;;;1.90;;
56391;SDS011;42289;53.582;9.714;2022-11-09T00:07:14;5.32;;;1.77;;
56391;SDS011;42289;53.582;9.714;2022-11-09T00:09:41;4.60;;;1.70;;
56391;SDS011;42289;53.582;9.714;2022-11-09T00:12:08;3.40;;;1.80;;
56391;SDS011;42289;53.582;9.714;2022-11-09T00:14:36;6.80;;;2.17;;
56391;SDS011;42289;53.582;9.714;2022-11-09T00:17:03;4.28;;;2.00;;
56391;SDS011;42289;53.582;9.714;2022-11-09T00:19:30;4.85;;;1.90;;
56391;SDS011;42289;53.582;9.714;2022-11-09T00:21:57;4.68;;;2.15;;
56391;SDS011;42289;53.582;9.714;2022-11-09T00:24:23;3.95;;;1.77;;
56391;SDS011;42289;53.582;9.714;2022-11-09T00:26:50;6.18;;;1.83;;
56391;SDS011;42289;53.582;9.714;2022-11-09T00:29:17;6.45;;;1.77;;
56391;SDS011;42289;53.582;9.714;2022-11-09T00:31:45;5.50;;;1.83;;
56391;SDS011;42289;53.582;9.714;2022-11-09T00:34:13;6.90;;;1.80;;
56391;SDS011;42289;53.582;9.714;2022-11-09T00:36:40;4.07;;;1.73;;
56391;SDS011;42289;53.582;9.714;2022-11-09T00:39:07;5.45;;;2.00;;
56391;SDS011;42289;53.582;9.714;2022-11-09T00:41:34;4.90;;;2.00;;
56391;SDS011;42289;53.582;9.714;2022-11-09T00:44:01;3.13;;;1.63;;
56391;SDS011;42289;53.582;9.714;2022-11-09T00:46:28;5.50;;;1.95;;
56391;SDS011;42289;53.582;9.714;2022-11-09T00:48:56;7.88;;;1.73;;
56391;SDS011;42289;53.582;9.714;2022-11-09T00:51:23;4.80;;;1.83;;
56391;SDS011;42289;53.582;9.714;2022-11-09T00:53:49;3.60;;;1.73;;
56391;SDS011;42289;53.582;9.714;2022-11-09T00:56:20;4.03;;;1.60;;
56391;SDS011;42289;53.582;9.714;2022-11-09T00:58:47;4.90;;;1.58;;
56391;SDS011;42289;53.582;9.714;2022-11-09T01:01:17;5.38;;;1.85;;
56391;SDS011;42289;53.582;9.714;2022-11-09T01:03:44;4.63;;;1.80;;
56391;SDS011;42289;53.582;9.714;2022-11-09T01:06:14;3.63;;;1.70;;
56391;SDS011;42289;53.582;9.714;2022-11-09T01:08:42;4.80;;;1.60;;
56391;SDS011;42289;53.582;9.714;2022-11-09T01:11:10;5.30;;;1.70;;
56391;SDS011;42289;53.582;9.714;2022-11-09T01:13:37;4.03;;;1.63;;
56391;SDS011;42289;53.582;9.714;2022-11-09T01:16:05;10.10;;;2.60;;
56391;SDS011;42289;53.582;9.714;2022-11-09T01:18:33;3.60;;;1.73;;
56391;SDS011;42289;53.582;9.714;2022-11-09T01:21:01;6.50;;;1.98;;
56391;SDS011;42289;53.582;9.714;2022-11-09T01:23:31;3.15;;;1.65;;
56391;SDS011;42289;53.582;9.714;2022-11-09T01:25:59;4.95;;;2.25;;
56391;SDS011;42289;53.582;9.714;2022-11-09T01:28:27;4.15;;;1.63;;
56391;SDS011;42289;53.582;9.714;2022-11-09T01:30:54;4.60;;;1.90;;
56391;SDS011;42289;53.582;9.714;2022-11-09T01:33:25;4.25;;;1.73;;
56391;SDS011;42289;53.582;9.714;2022-11-09T01:35:52;7.95;;;1.80;;
56391;SDS011;42289;53.582;9.714;2022-11-09T01:38:18;2.90;;;1.70;;
56391;SDS011;42289;53.582;9.714;2022-11-09T01:40:46;3.88;;;2.00;;
56391;SDS011;42289;53.582;9.714;2022-11-09T01:43:13;4.65;;;1.92;;
56391;SDS011;42289;53.582;9.714;2022-11-09T01:45:41;5.25;;;2.28;;
56391;SDS011;42289;53.582;9.714;2022-11-09T01:48:11;4.18;;;1.60;;
56391;SDS011;42289;53.582;9.714;2022-11-09T01:50:40;3.53;;;1.65;;
56391;SDS011;42289;53.582;9.714;2022-11-09T01:53:12;6.82;;;2.10;;
56391;SDS011;42289;53.582;9.714;2022-11-09T01:55:42;5.28;;;1.85;;
56391;SDS011;42289;53.582;9.714;2022-11-09T01:58:13;4.10;;;1.75;;
56391;SDS011;42289;53.582;9.714;2022-11-09T02:00:43;5.85;;;1.85;;
56391;SDS011;42289;53.582;9.714;2022-11-09T02:03:13;3.38;;;1.67;;
56391;SDS011;42289;53.582;9.714;2022-11-09T02:05:43;4.07;;;1.80;;
56391;SDS011;42289;53.582;9.714;2022-11-09T02:08:11;4.75;;;1.90;;
56391;SDS011;42289;53.582;9.714;2022-11-09T02:10:42;4.78;;;1.90;;
56391;SDS011;42289;53.582;9.714;2022-11-09T02:13:17;5.63;;;1.70;;
56391;SDS011;42289;53.582;9.714;2022-11-09T02:15:46;4.97;;;1.75;;
56391;SDS011;42289;53.582;9.714;2022-11-09T02:18:14;4.47;;;1.70;;
56391;SDS011;42289;53.582;9.714;2022-11-09T02:20:46;4.30;;;1.88;;
56391;SDS011;42289;53.582;9.714;2022-11-09T02:23:14;6.72;;;1.73;;
56391;SDS011;42289;53.582;9.714;2022-11-09T02:25:42;4.22;;;1.80;;
56391;SDS011;42289;53.582;9.714;2022-11-09T02:28:13;5.43;;;2.03;;
56391;SDS011;42289;53.582;9.714;2022-11-09T02:30:41;2.95;;;1.50;;
56391;SDS011;42289;53.582;9.714;2022-11-09T02:33:09;4.85;;;2.10;;
56391;SDS011;42289;53.582;9.714;2022-11-09T02:35:35;4.97;;;2.00;;
56391;SDS011;42289;53.582;9.714;2022-11-09T02:38:04;4.60;;;1.73;;
56391;SDS011;42289;53.582;9.714;2022-11-09T02:40:31;6.22;;;1.75;;
56391;SDS011;42289;53.582;9.714;2022-11-09T02:43:01;5.55;;;1.98;;
56391;SDS011;42289;53.582;9.714;2022-11-09T02:45:29;3.90;;;1.80;;
56391;SDS011;42289;53.582;9.714;2022-11-09T02:47:56;3.67;;;1.63;;
56391;SDS011;42289;53.582;9.714;2022-11-09T02:50:22;5.72;;;1.80;;
56391;SDS011;42289;53.582;9.714;2022-11-09T02:52:49;4.20;;;1.90;;
56391;SDS011;42289;53.582;9.714;2022-11-09T02:55:17;7.53;;;1.75;;
56391;SDS011;42289;53.582;9.714;2022-11-09T02:57:43;4.78;;;1.75;;
56391;SDS011;42289;53.582;9.714;2022-11-09T03:00:10;4.85;;;1.92;;
56391;SDS011;42289;53.582;9.714;2022-11-09T03:02:37;3.72;;;1.80;;
56391;SDS011;42289;53.582;9.714;2022-11-09T03:05:04;3.72;;;1.80;;
56391;SDS011;42289;53.582;9.714;2022-11-09T03:07:31;4.57;;;2.10;;
56391;SDS011;42289;53.582;9.714;2022-11-09T03:09:58;6.38;;;2.10;;
56391;SDS011;42289;53.582;9.714;2022-11-09T03:12:25;6.40;;;1.98;;
56391;SDS011;42289;53.582;9.714;2022-11-09T03:14:55;11.90;;;1.88;;
56391;SDS011;42289;53.582;9.714;2022-11-09T03:17:21;5.20;;;1.92;;
56391;SDS011;42289;53.582;9.714;2022-11-09T03:19:48;4.60;;;1.80;;
56391;SDS011;42289;53.582;9.714;2022-11-09T03:22:15;3.90;;;1.73;;
56391;SDS011;42289;53.582;9.714;2022-11-09T03:24:41;4.68;;;1.75;;
56391;SDS011;42289;53.582;9.714;2022-11-09T03:27:08;5.28;;;1.70;;
56391;SDS011;42289;53.582;9.714;2022-11-09T03:29:35;5.78;;;1.80;;
56391;SDS011;42289;53.582;9.714;2022-11-09T03:32:02;4.90;;;1.90;;
56391;SDS011;42289;53.582;9.714;2022-11-09T03:34:29;4.78;;;1.90;;
56391;SDS011;42289;53.582;9.714;2022-11-09T03:36:55;4.85;;;1.75;;
56391;SDS011;42289;53.582;9.714;2022-11-09T03:39:22;4.88;;;1.80;;
56391;SDS011;42289;53.582;9.714;2022-11-09T03:41:48;6.00;;;1.80;;
56391;SDS011;42289;53.582;9.714;2022-11-09T03:44:14;3.80;;;1.85;;
56391;SDS011;42289;53.582;9.714;2022-11-09T03:46:42;5.25;;;1.90;;
56391;SDS011;42289;53.582;9.714;2022-11-09T03:49:09;4.53;;;2.00;;
56391;SDS011;42289;53.582;9.714;2022-11-09T03:51:35;4.43;;;1.70;;
56391;SDS011;42289;53.582;9.714;2022-11-09T03:54:02;3.65;;;1.88;;
56391;SDS011;42289;53.582;9.714;2022-11-09T03:56:28;4.97;;;1.90;;
56391;SDS011;42289;53.582;9.714;2022-11-09T03:58:55;5.38;;;2.08;;
56391;SDS011;42289;53.582;9.714;2022-11-09T04:01:21;4.53;;;1.83;;
56391;SDS011;42289;53.582;9.714;2022-11-09T04:03:49;4.88;;;1.80;;
56391;SDS011;42289;53.582;9.714;2022-11-09T04:06:15;5.28;;;1.77;;
56391;SDS011;42289;53.582;9.714;2022-11-09T04:08:42;8.25;;;3.85;;
56391;SDS011;42289;53.582;9.714;2022-11-09T04:11:08;11.25;;;7.65;;
56391;SDS011;42289;53.582;9.714;2022-11-09T04:13:35;18.63;;;11.35;;
56391;SDS011;42289;53.582;9.714;2022-11-09T04:16:01;16.35;;;9.98;;
56391;SDS011;42289;53.582;9.714;2022-11-09T04:18:27;10.98;;;6.40;;
56391;SDS011;42289;53.582;9.714;2022-11-09T04:20:57;8.68;;;5.72;;
56391;SDS011;42289;53.582;9.714;2022-11-09T04:23:24;8.80;;;4.88;;
56391;SDS011;42289;53.582;9.714;2022-11-09T04:25:50;6.88;;;3.22;;
56391;SDS011;42289;53.582;9.714;2022-11-09T04:28:17;6.78;;;2.70;;
56391;SDS011;42289;53.582;9.714;2022-11-09T04:30:43;3.90;;;1.90;;
56391;SDS011;42289;53.582;9.714;2022-11-09T04:33:10;7.07;;;2.00;;
56391;SDS011;42289;53.582;9.714;2022-11-09T04:35:36;4.20;;;1.80;;
56391;SDS011;42289;53.582;9.714;2022-11-09T04:38:04;6.00;;;2.10;;
56391;SDS011;42289;53.582;9.714;2022-11-09T04:40:32;4.93;;;2.00;;
56391;SDS011;42289;53.582;9.714;2022-11-09T04:43:00;5.30;;;1.83;;
56391;SDS011;42289;53.582;9.714;2022-11-09T04:45:27;7.15;;;2.05;;
56391;SDS011;42289;53.582;9.714;2022-11-09T04:47:55;4.38;;;1.80;;
56391;SDS011;42289;53.582;9.714;2022-11-09T04:50:22;4.72;;;1.92;;
56391;SDS011;42289;53.582;9.714;2022-11-09T04:52:49;4.25;;;1.90;;
56391;SDS011;42289;53.582;9.714;2022-11-09T04:55:17;3.97;;;1.85;;
56391;SDS011;42289;53.582;9.714;2022-11-09T04:57:43;4.63;;;2.10;;
56391;SDS011;42289;53.582;9.714;2022-11-09T05:00:10;3.92;;;1.80;;
56391;SDS011;42289;53.582;9.714;2022-11-09T05:02:37;3.50;;;1.67;;
56391;SDS011;42289;53.582;9.714;2022-11-09T05:05:04;5.60;;;1.88;;
56391;SDS011;42289;53.582;9.714;2022-11-09T05:07:31;5.80;;;1.92;;
56391;SDS011;42289;53.582;9.714;2022-11-09T05:09:57;3.78;;;2.00;;
56391;SDS011;42289;53.582;9.714;2022-11-09T05:12:25;4.43;;;1.80;;
56391;SDS011;42289;53.582;9.714;2022-11-09T05:14:51;5.35;;;2.03;;
56391;SDS011;42289;53.582;9.714;2022-11-09T05:17:18;3.60;;;1.75;;
56391;SDS011;42289;53.582;9.714;2022-11-09T05:19:44;5.43;;;1.95;;
56391;SDS011;42289;53.582;9.714;2022-11-09T05:22:10;4.10;;;1.90;;
56391;SDS011;42289;53.582;9.714;2022-11-09T05:24:51;4.00;;;1.67;;
56391;SDS011;42289;53.582;9.714;2022-11-09T05:27:17;3.67;;;1.80;;
56391;SDS011;42289;53.582;9.714;2022-11-09T05:29:45;4.03;;;1.80;;
56391;SDS011;42289;53.582;9.714;2022-11-09T05:32:11;3.88;;;1.80;;
56391;SDS011;42289;53.582;9.714;2022-11-09T05:34:38;4.85;;;1.60;;
56391;SDS011;42289;53.582;9.714;2022-11-09T05:37:04;5.10;;;1.77;;
56391;SDS011;42289;53.582;9.714;2022-11-09T05:39:30;3.25;;;1.60;;
56391;SDS011;42289;53.582;9.714;2022-11-09T05:41:57;4.53;;;1.80;;
56391;SDS011;42289;53.582;9.714;2022-11-09T05:44:23;4.15;;;1.90;;
56391;SDS011;42289;53.582;9.714;2022-11-09T05:46:51;4.13;;;1.70;;
56391;SDS011;42289;53.582;9.714;2022-11-09T05:49:17;3.80;;;1.70;;
56391;SDS011;42289;53.582;9.714;2022-11-09T05:51:44;5.45;;;2.00;;
56391;SDS011;42289;53.582;9.714;2022-11-09T05:54:10;4.55;;;1.80;;
56391;SDS011;42289;53.582;9.714;2022-11-09T05:56:37;5.45;;;1.98;;
56391;SDS011;42289;53.582;9.714;2022-11-09T05:59:03;4.65;;;1.60;;
56391;SDS011;42289;53.582;9.714;2022-11-09T06:01:29;5.28;;;1.73;;
56391;SDS011;42289;53.582;9.714;2022-11-09T06:03:57;5.82;;;2.03;;
56391;SDS011;42289;53.582;9.714;2022-11-09T06:06:24;4.35;;;1.88;;
56391;SDS011;42289;53.582;9.714;2022-11-09T06:08:50;4.85;;;1.80;;
56391;SDS011;42289;53.582;9.714;2022-11-09T06:11:16;3.25;;;1.55;;
56391;SDS011;42289;53.582;9.714;2022-11-09T06:13:43;4.00;;;1.67;;
56391;SDS011;42289;53.582;9.714;2022-11-09T06:16:09;5.13;;;1.90;;
56391;SDS011;42289;53.582;9.714;2022-11-09T06:18:36;4.28;;;1.92;;
56391;SDS011;42289;53.582;9.714;2022-11-09T06:21:04;3.50;;;1.80;;
56391;SDS011;42289;53.582;9.714;2022-11-09T06:23:31;3.75;;;1.67;;
56391;SDS011;42289;53.582;9.714;2022-11-09T06:25:58;3.45;;;1.58;;
56391;SDS011;42289;53.582;9.714;2022-11-09T06:28:27;3.60;;;1.58;;
56391;SDS011;42289;53.582;9.714;2022-11-09T06:30:55;4.90;;;1.67;;
56391;SDS011;42289;53.582;9.714;2022-11-09T06:33:22;4.10;;;2.00;;
56391;SDS011;42289;53.582;9.714;2022-11-09T06:35:48;4.65;;;1.88;;
56391;SDS011;42289;53.582;9.714;2022-11-09T06:38:16;4.93;;;2.20;;
56391;SDS011;42289;53.582;9.714;2022-11-09T06:40:43;3.83;;;1.50;;
56391;SDS011;42289;53.582;9.714;2022-11-09T06:43:09;4.28;;;1.80;;
56391;SDS011;42289;53.582;9.714;2022-11-09T06:45:35;3.35;;;1.58;;
56391;SDS011;42289;53.582;9.714;2022-11-09T06:48:02;6.15;;;1.98;;
56391;SDS011;42289;53.582;9.714;2022-11-09T06:50:30;4.65;;;1.98;;
56391;SDS011;42289;53.582;9.714;2022-11-09T06:52:57;5.38;;;1.90;;
56391;SDS011;42289;53.582;9.714;2022-11-09T06:55:26;4.25;;;1.58;;
56391;SDS011;42289;53.582;9.714;2022-11-09T06:57:53;4.25;;;1.65;;
56391;SDS011;42289;53.582;9.714;2022-11-09T07:00:20;4.30;;;1.90;;
56391;SDS011;42289;53.582;9.714;2022-11-09T07:02:47;4.63;;;1.70;;
56391;SDS011;42289;53.582;9.714;2022-11-09T07:05:14;5.00;;;1.65;;
56391;SDS011;42289;53.582;9.714;2022-11-09T07:07:40;10.70;;;1.98;;
56391;SDS011;42289;53.582;9.714;2022-11-09T07:10:07;10.63;;;2.30;;
56391;SDS011;42289;53.582;9.714;2022-11-09T07:12:36;5.90;;;1.80;;
56391;SDS011;42289;53.582;9.714;2022-11-09T07:15:02;5.70;;;1.95;;
56391;SDS011;42289;53.582;9.714;2022-11-09T07:17:29;3.83;;;1.70;;
56391;SDS011;42289;53.582;9.714;2022-11-09T07:19:56;5.05;;;1.95;;
56391;SDS011;42289;53.582;9.714;2022-11-09T07:22:23;5.97;;;2.20;;
56391;SDS011;42289;53.582;9.714;2022-11-09T07:24:50;6.35;;;2.42;;
56391;SDS011;42289;53.582;9.714;2022-11-09T07:27:16;6.20;;;2.00;;
56391;SDS011;42289;53.582;9.714;2022-11-09T07:29:44;4.35;;;1.75;;
56391;SDS011;42289;53.582;9.714;2022-11-09T07:32:10;3.63;;;1.65;;
56391;SDS011;42289;53.582;9.714;2022-11-09T07:34:37;3.38;;;1.50;;
56391;SDS011;42289;53.582;9.714;2022-11-09T07:37:03;4.22;;;1.67;;
56391;SDS011;42289;53.582;9.714;2022-11-09T07:39:29;6.35;;;1.90;;
56391;SDS011;42289;53.582;9.714;2022-11-09T07:41:56;5.88;;;1.85;;
56391;SDS011;42289;53.582;9.714;2022-11-09T07:44:22;4.88;;;1.73;;
56391;SDS011;42289;53.582;9.714;2022-11-09T07:46:50;5.13;;;1.73;;
56391;SDS011;42289;53.582;9.714;2022-11-09T07:49:16;3.90;;;1.75;;
56391;SDS011;42289;53.582;9.714;2022-11-09T07:51:43;6.35;;;1.85;;
56391;SDS011;42289;53.582;9.714;2022-11-09T07:54:10;7.78;;;1.90;;
56391;SDS011;42289;53.582;9.714;2022-11-09T07:56:36;4.20;;;1.60;;
56391;SDS011;42289;53.582;9.714;2022-11-09T07:59:03;5.78;;;1.83;;
56391;SDS011;42289;53.582;9.714;2022-11-09T08:01:30;3.67;;;1.60;;
56391;SDS011;42289;53.582;9.714;2022-11-09T08:03:58;5.40;;;1.70;;
56391;SDS011;42289;53.582;9.714;2022-11-09T08:06:25;4.10;;;1.52;;
56391;SDS011;42289;53.582;9.714;2022-11-09T08:08:52;6.95;;;1.75;;
56391;SDS011;42289;53.582;9.714;2022-11-09T08:11:19;4.57;;;1.40;;
56391;SDS011;42289;53.582;9.714;2022-11-09T08:13:46;6.72;;;1.48;;
56391;SDS011;42289;53.582;9.714;2022-11-09T08:16:12;6.82;;;1.98;;
56391;SDS011;42289;53.582;9.714;2022-11-09T08:18:39;3.83;;;1.63;;
56391;SDS011;42289;53.582;9.714;2022-11-09T08:21:06;5.20;;;1.63;;
56391;SDS011;42289;53.582;9.714;2022-11-09T08:23:33;8.30;;;1.60;;
56391;SDS011;42289;53.582;9.714;2022-11-09T08:26:00;4.88;;;1.63;;
56391;SDS011;42289;53.582;9.714;2022-11-09T08:28:28;3.65;;;1.65;;
56391;SDS011;42289;53.582;9.714;2022-11-09T08:30:55;8.20;;;1.65;;
56391;SDS011;42289;53.582;9.714;2022-11-09T08:33:22;6.65;;;1.52;;
56391;SDS011;42289;53.582;9.714;2022-11-09T08:35:49;7.15;;;1.40;;
56391;SDS011;42289;53.582;9.714;2022-11-09T08:38:17;4.63;;;1.58;;
56391;SDS011;42289;53.582;9.714;2022-11-09T08:40:43;5.10;;;1.30;;
56391;SDS011;42289;53.582;9.714;2022-11-09T08:43:09;5.20;;;1.50;;
56391;SDS011;42289;53.582;9.714;2022-11-09T08:45:37;6.40;;;1.40;;
56391;SDS011;42289;53.582;9.714;2022-11-09T08:48:05;5.85;;;1.73;;
56391;SDS011;42289;53.582;9.714;2022-11-09T08:50:32;6.20;;;1.90;;
56391;SDS011;42289;53.582;9.714;2022-11-09T08:53:00;7.28;;;1.65;;
56391;SDS011;42289;53.582;9.714;2022-11-09T08:55:29;6.45;;;1.60;;
56391;SDS011;42289;53.582;9.714;2022-11-09T08:57:56;7.25;;;1.65;;
56391;SDS011;42289;53.582;9.714;2022-11-09T09:00:24;5.60;;;1.55;;
56391;SDS011;42289;53.582;9.714;2022-11-09T09:02:51;6.65;;;1.77;;
56391;SDS011;42289;53.582;9.714;2022-11-09T09:05:18;7.68;;;1.98;;
56391;SDS011;42289;53.582;9.714;2022-11-09T09:07:46;6.65;;;2.10;;
56391;SDS011;42289;53.582;9.714;2022-11-09T09:10:12;10.52;;;1.90;;
56391;SDS011;42289;53.582;9.714;2022-11-09T09:12:40;11.43;;;2.13;;
56391;SDS011;42289;53.582;9.714;2022-11-09T09:15:07;10.10;;;2.08;;
56391;SDS011;42289;53.582;9.714;2022-11-09T09:17:34;8.20;;;1.73;;
56391;SDS011;42289;53.582;9.714;2022-11-09T09:20:00;7.80;;;1.98;;
56391;SDS011;42289;53.582;9.714;2022-11-09T09:22:28;9.18;;;2.15;;
56391;SDS011;42289;53.582;9.714;2022-11-09T09:24:56;5.93;;;1.80;;
56391;SDS011;42289;53.582;9.714;2022-11-09T09:27:22;6.05;;;2.05;;
56391;SDS011;42289;53.582;9.714;2022-11-09T09:29:50;12.68;;;1.88;;
56391;SDS011;42289;53.582;9.714;2022-11-09T09:32:17;7.70;;;1.70;;
56391;SDS011;42289;53.582;9.714;2022-11-09T09:34:43;7.05;;;1.60;;
56391;SDS011;42289;53.582;9.714;2022-11-09T09:37:09;5.95;;;1.80;;
56391;SDS011;42289;53.582;9.714;2022-11-09T09:39:36;6.72;;;1.73;;
56391;SDS011;42289;53.582;9.714;2022-11-09T09:42:03;8.43;;;1.90;;
56391;SDS011;42289;53.582;9.714;2022-11-09T09:44:33;8.95;;;1.92;;
56391;SDS011;42289;53.582;9.714;2022-11-09T09:47:09;9.77;;;2.13;;
56391;SDS011;42289;53.582;9.714;2022-11-09T09:49:38;6.50;;;1.80;;
56391;SDS011;42289;53.582;9.714;2022-11-09T09:52:11;5.70;;;1.70;;
56391;SDS011;42289;53.582;9.714;2022-11-09T09:54:43;5.90;;;1.80;;
56391;SDS011;42289;53.582;9.714;2022-11-09T09:57:16;7.05;;;1.90;;
56391;SDS011;42289;53.582;9.714;2022-11-09T09:59:46;8.43;;;1.90;;
56391;SDS011;42289;53.582;9.714;2022-11-09T10:02:17;6.68;;;1.70;;
56391;SDS011;42289;53.582;9.714;2022-11-09T10:04:47;7.93;;;2.00;;
56391;SDS011;42289;53.582;9.714;2022-11-09T10:07:15;9.38;;;1.88;;
56391;SDS011;42289;53.582;9.714;2022-11-09T10:09:53;8.20;;;1.80;;
56391;SDS011;42289;53.582;9.714;2022-11-09T10:12:30;9.52;;;1.83;;
56391;SDS011;42289;53.582;9.714;2022-11-09T10:15:11;4.75;;;1.55;;
56391;SDS011;42289;53.582;9.714;2022-11-09T10:17:46;9.77;;;1.90;;
56391;SDS011;42289;53.582;9.714;2022-11-09T10:20:32;7.30;;;1.98;;
56391;SDS011;42289;53.582;9.714;2022-11-09T10:23:10;8.02;;;1.98;;
56391;SDS011;42289;53.582;9.714;2022-11-09T10:25:49;8.63;;;1.80;;
56391;SDS011;42289;53.582;9.714;2022-11-09T10:28:21;6.82;;;1.90;;
56391;SDS011;42289;53.582;9.714;2022-11-09T10:30:52;7.43;;;2.00;;
56391;SDS011;42289;53.582;9.714;2022-11-09T10:33:20;8.93;;;1.75;;
56391;SDS011;42289;53.582;9.714;2022-11-09T10:35:49;7.30;;;1.48;;
56391;SDS011;42289;53.582;9.714;2022-11-09T10:38:21;8.48;;;1.92;;
56391;SDS011;42289;53.582;9.714;2022-11-09T10:40:51;7.25;;;1.60;;
56391;SDS011;42289;53.582;9.714;2022-11-09T10:43:19;7.00;;;1.60;;
56391;SDS011;42289;53.582;9.714;2022-11-09T10:45:45;7.07;;;1.90;;
56391;SDS011;42289;53.582;9.714;2022-11-09T10:48:30;8.55;;;1.92;;
56391;SDS011;42289;53.582;9.714;2022-11-09T10:50:57;8.88;;;1.98;;
56391;SDS011;42289;53.582;9.714;2022-11-09T10:53:25;12.48;;;1.90;;
56391;SDS011;42289;53.582;9.714;2022-11-09T10:55:52;6.75;;;1.60;;
56391;SDS011;42289;53.582;9.714;2022-11-09T10:58:22;9.18;;;1.90;;
56391;SDS011;42289;53.582;9.714;2022-11-09T11:00:54;8.50;;;2.03;;
56391;SDS011;42289;53.582;9.714;2022-11-09T11:03:24;6.05;;;1.73;;
56391;SDS011;42289;53.582;9.714;2022-11-09T11:05:56;10.90;;;1.75;;
56391;SDS011;42289;53.582;9.714;2022-11-09T11:08:25;7.55;;;2.20;;
56391;SDS011;42289;53.582;9.714;2022-11-09T11:11:09;8.00;;;2.00;;
56391;SDS011;42289;53.582;9.714;2022-11-09T11:13:42;8.88;;;2.25;;
56391;SDS011;42289;53.582;9.714;2022-11-09T11:16:13;8.80;;;2.03;;
56391;SDS011;42289;53.582;9.714;2022-11-09T11:18:51;10.57;;;1.52;;
56391;SDS011;42289;53.582;9.714;2022-11-09T11:21:19;5.95;;;1.65;;
56391;SDS011;42289;53.582;9.714;2022-11-09T11:24:02;9.20;;;1.80;;
56391;SDS011;42289;53.582;9.714;2022-11-09T11:26:41;6.72;;;1.73;;
56391;SDS011;42289;53.582;9.714;2022-11-09T11:29:20;7.13;;;1.73;;
56391;SDS011;42289;53.582;9.714;2022-11-09T11:31:54;9.48;;;1.73;;
56391;SDS011;42289;53.582;9.714;2022-11-09T11:34:21;7.82;;;1.70;;
56391;SDS011;42289;53.582;9.714;2022-11-09T11:36:52;8.05;;;1.98;;
56391;SDS011;42289;53.582;9.714;2022-11-09T11:39:33;7.30;;;1.90;;
56391;SDS011;42289;53.582;9.714;2022-11-09T11:42:21;9.55;;;1.80;;
56391;SDS011;42289;53.582;9.714;2022-11-09T11:45:02;7.50;;;1.50;;
56391;SDS011;42289;53.582;9.714;2022-11-09T11:47:43;7.47;;;1.50;;
56391;SDS011;42289;53.582;9.714;2022-11-09T11:50:24;5.72;;;1.52;;
56391;SDS011;42289;53.582;9.714;2022-11-09T11:53:05;9.15;;;1.88;;
56391;SDS011;42289;53.582;9.714;2022-11-09T11:55:46;8.15;;;1.75;;
56391;SDS011;42289;53.582;9.714;2022-11-09T11:58:41;5.85;;;1.70;;
56391;SDS011;42289;53.582;9.714;2022-11-09T12:01:18;10.05;;;1.73;;
56391;SDS011;42289;53.582;9.714;2022-11-09T12:04:00;10.93;;;2.08;;
56391;SDS011;42289;53.582;9.714;2022-11-09T12:06:41;5.60;;;1.73;;
56391;SDS011;42289;53.582;9.714;2022-11-09T12:09:26;9.50;;;1.83;;
56391;SDS011;42289;53.582;9.714;2022-11-09T12:12:06;5.60;;;1.38;;
56391;SDS011;42289;53.582;9.714;2022-11-09T12:14:41;5.55;;;1.58;;
56391;SDS011;42289;53.582;9.714;2022-11-09T12:17:20;8.80;;;1.83;;
56391;SDS011;42289;53.582;9.714;2022-11-09T12:19:57;7.10;;;1.90;;
56391;SDS011;42289;53.582;9.714;2022-11-09T12:22:34;9.65;;;2.13;;
56391;SDS011;42289;53.582;9.714;2022-11-09T12:25:13;8.50;;;1.95;;
56391;SDS011;42289;53.582;9.714;2022-11-09T12:27:48;8.27;;;1.85;;
56391;SDS011;42289;53.582;9.714;2022-11-09T12:30:26;8.40;;;1.85;;
56391;SDS011;42289;53.582;9.714;2022-11-09T12:32:57;9.70;;;2.22;;
56391;SDS011;42289;53.582;9.714;2022-11-09T12:35:28;8.25;;;1.45;;
56391;SDS011;42289;53.582;9.714;2022-11-09T12:37:58;4.72;;;1.55;;
56391;SDS011;42289;53.582;9.714;2022-11-09T12:40:30;5.88;;;1.63;;
56391;SDS011;42289;53.582;9.714;2022-11-09T12:43:09;8.40;;;1.80;;
56391;SDS011;42289;53.582;9.714;2022-11-09T12:45:41;7.07;;;1.40;;
56391;SDS011;42289;53.582;9.714;2022-11-09T12:48:12;6.88;;;1.58;;
56391;SDS011;42289;53.582;9.714;2022-11-09T12:50:48;5.90;;;1.52;;
56391;SDS011;42289;53.582;9.714;2022-11-09T12:53:16;8.02;;;1.90;;
56391;SDS011;42289;53.582;9.714;2022-11-09T12:55:46;8.30;;;1.33;;
56391;SDS011;42289;53.582;9.714;2022-11-09T12:58:21;5.78;;;1.40;;
56391;SDS011;42289;53.582;9.714;2022-11-09T13:00:50;9.20;;;1.52;;
56391;SDS011;42289;53.582;9.714;2022-11-09T13:03:23;5.32;;;1.60;;
56391;SDS011;42289;53.582;9.714;2022-11-09T13:08:40;7.10;;;1.45;;
56391;SDS011;42289;53.582;9.714;2022-11-09T13:11:19;7.60;;;1.52;;
56391;SDS011;42289;53.582;9.714;2022-11-09T13:13:47;8.88;;;1.90;;
56391;SDS011;42289;53.582;9.714;2022-11-09T13:16:30;6.13;;;1.65;;
56391;SDS011;42289;53.582;9.714;2022-11-09T13:18:58;7.32;;;1.75;;
56391;SDS011;42289;53.582;9.714;2022-11-09T13:21:33;7.38;;;1.58;;
56391;SDS011;42289;53.582;9.714;2022-11-09T13:33:16;9.25;;;1.73;;
56391;SDS011;42289;53.582;9.714;2022-11-09T13:41:52;5.68;;;1.40;;
56391;SDS011;42289;53.582;9.714;2022-11-09T13:44:23;8.68;;;1.75;;
56391;SDS011;42289;53.582;9.714;2022-11-09T13:46:51;8.45;;;1.33;;
56391;SDS011;42289;53.582;9.714;2022-11-09T13:49:33;6.55;;;1.20;;
56391;SDS011;42289;53.582;9.714;2022-11-09T13:52:21;7.13;;;1.33;;
56391;SDS011;42289;53.582;9.714;2022-11-09T13:55:12;7.45;;;1.38;;
56391;SDS011;42289;53.582;9.714;2022-11-09T13:57:43;4.70;;;1.38;;
56391;SDS011;42289;53.582;9.714;2022-11-09T14:00:15;4.60;;;1.38;;
56391;SDS011;42289;53.582;9.714;2022-11-09T14:02:54;5.55;;;1.60;;
56391;SDS011;42289;53.582;9.714;2022-11-09T14:05:23;8.32;;;1.45;;
56391;SDS011;42289;53.582;9.714;2022-11-09T14:07:51;7.00;;;1.50;;
56391;SDS011;42289;53.582;9.714;2022-11-09T14:10:20;11.30;;;1.48;;
56391;SDS011;42289;53.582;9.714;2022-11-09T14:12:57;4.95;;;1.30;;
56391;SDS011;42289;53.582;9.714;2022-11-09T14:15:38;8.45;;;1.40;;
56391;SDS011;42289;53.582;9.714;2022-11-09T14:18:17;8.23;;;1.75;;
56391;SDS011;42289;53.582;9.714;2022-11-09T14:20:53;7.97;;;1.67;;
56391;SDS011;42289;53.582;9.714;2022-11-09T14:23:27;6.32;;;1.27;;
56391;SDS011;42289;53.582;9.714;2022-11-09T14:25:55;9.90;;;1.58;;
56391;SDS011;42289;53.582;9.714;2022-11-09T14:28:23;5.97;;;1.48;;
56391;SDS011;42289;53.582;9.714;2022-11-09T14:30:54;6.03;;;1.38;;
56391;SDS011;42289;53.582;9.714;2022-11-09T14:33:22;6.82;;;1.52;;
56391;SDS011;42289;53.582;9.714;2022-11-09T14:35:50;7.80;;;1.52;;
56391;SDS011;42289;53.582;9.714;2022-11-09T14:38:19;8.25;;;1.55;;
56391;SDS011;42289;53.582;9.714;2022-11-09T14:40:48;8.02;;;1.67;;
56391;SDS011;42289;53.582;9.714;2022-11-09T14:43:25;5.63;;;1.30;;
56391;SDS011;42289;53.582;9.714;2022-11-09T14:45:56;4.47;;;1.20;;
56391;SDS011;42289;53.582;9.714;2022-11-09T14:48:24;6.47;;;1.55;;
56391;SDS011;42289;53.582;9.714;2022-11-09T14:50:53;9.40;;;2.30;;
56391;SDS011;42289;53.582;9.714;2022-11-09T14:53:23;7.40;;;2.30;;
56391;SDS011;42289;53.582;9.714;2022-11-09T14:55:54;7.32;;;1.40;;
56391;SDS011;42289;53.582;9.714;2022-11-09T14:58:23;7.50;;;1.60;;
56391;SDS011;42289;53.582;9.714;2022-11-09T15:01:07;5.55;;;1.30;;
56391;SDS011;42289;53.582;9.714;2022-11-09T15:03:35;5.90;;;1.50;;
56391;SDS011;42289;53.582;9.714;2022-11-09T15:06:03;7.20;;;1.45;;
56391;SDS011;42289;53.582;9.714;2022-11-09T15:08:31;10.43;;;1.60;;
56391;SDS011;42289;53.582;9.714;2022-11-09T15:10:59;6.45;;;1.40;;
56391;SDS011;42289;53.582;9.714;2022-11-09T15:13:29;7.07;;;1.25;;
56391;SDS011;42289;53.582;9.714;2022-11-09T15:15:57;7.40;;;1.50;;
56391;SDS011;42289;53.582;9.714;2022-11-09T15:18:26;6.40;;;1.35;;
56391;SDS011;42289;53.582;9.714;2022-11-09T15:21:10;6.85;;;1.25;;